createdAt,value
2019-03-23T00:00:36.948Z,9.19
2019-03-23T00:03:08.456Z,9.20
2019-03-23T00:05:39.844Z,9.23
2019-03-23T00:08:11.094Z,9.30
2019-03-23T00:10:42.398Z,9.24
2019-03-23T00:13:13.706Z,9.19
2019-03-23T00:15:45.002Z,9.21
2019-03-23T00:18:16.217Z,9.28
2019-03-23T00:20:47.383Z,9.21
2019-03-23T00:23:18.786Z,9.20
2019-03-23T00:25:50.046Z,9.23
2019-03-23T00:28:21.328Z,9.21
2019-03-23T00:30:52.681Z,9.18
2019-03-23T00:33:23.939Z,9.22
2019-03-23T00:35:55.348Z,9.20
2019-03-23T00:38:26.739Z,9.23
2019-03-23T00:40:58.120Z,9.20
2019-03-23T00:43:29.412Z,9.16
2019-03-23T00:46:00.872Z,9.09
2019-03-23T00:48:32.155Z,9.05
2019-03-23T00:51:03.475Z,9.09
2019-03-23T00:53:34.884Z,9.10
2019-03-23T00:56:06.333Z,9.13
2019-03-23T00:58:37.599Z,9.16
2019-03-23T01:01:08.952Z,9.14
2019-03-23T01:03:40.216Z,9.13
2019-03-23T01:06:11.532Z,9.07
2019-03-23T01:08:42.933Z,9.10
2019-03-23T01:11:14.297Z,9.09
2019-03-23T01:13:45.577Z,9.05
2019-03-23T01:16:16.991Z,9.05
2019-03-23T01:18:48.394Z,9.06
2019-03-23T01:21:19.696Z,9.02
2019-03-23T01:23:51.045Z,8.86
2019-03-23T01:26:22.366Z,8.83
2019-03-23T01:28:53.627Z,8.72
2019-03-23T01:31:25.006Z,8.71
2019-03-23T01:33:56.312Z,8.66
2019-03-23T01:36:27.710Z,8.58
2019-03-23T01:38:58.975Z,8.55
2019-03-23T01:41:30.309Z,8.51
2019-03-23T01:44:01.641Z,8.57
2019-03-23T01:46:33.004Z,8.77
2019-03-23T01:49:04.244Z,8.72
2019-03-23T01:51:35.612Z,8.71
2019-03-23T01:54:06.982Z,8.64
2019-03-23T01:56:38.251Z,8.74
2019-03-23T01:59:09.571Z,8.69
2019-03-23T02:01:40.935Z,8.66
2019-03-23T02:04:12.268Z,8.50
2019-03-23T02:06:43.640Z,8.42
2019-03-23T02:09:14.992Z,8.36
2019-03-23T02:11:46.316Z,8.25
2019-03-23T02:14:17.644Z,8.26
2019-03-23T02:16:48.966Z,8.05
2019-03-23T02:19:20.297Z,7.94
2019-03-23T02:21:51.636Z,7.88
2019-03-23T02:24:22.969Z,7.91
2019-03-23T02:26:54.269Z,7.97
2019-03-23T02:29:25.638Z,7.78
2019-03-23T02:31:56.892Z,7.72
2019-03-23T02:34:28.252Z,7.79
2019-03-23T02:36:59.517Z,7.76
2019-03-23T02:39:30.867Z,7.84
2019-03-23T02:42:02.345Z,7.73
2019-03-23T02:44:33.594Z,7.73
2019-03-23T02:47:04.859Z,7.62
2019-03-23T02:49:36.059Z,7.55
2019-03-23T02:52:07.335Z,7.45
2019-03-23T02:54:38.585Z,7.34
2019-03-23T02:57:09.813Z,7.26
2019-03-23T02:59:41.100Z,7.34
2019-03-23T03:02:12.443Z,7.28
2019-03-23T03:04:43.685Z,7.23
2019-03-23T03:07:14.989Z,7.16
2019-03-23T03:09:46.279Z,7.20
2019-03-23T03:12:17.497Z,7.25
2019-03-23T03:14:48.796Z,7.07
2019-03-23T03:17:20.188Z,7.01
2019-03-23T03:19:51.503Z,7.08
2019-03-23T03:22:22.796Z,7.05
2019-03-23T03:24:54.155Z,7.02
2019-03-23T03:27:25.471Z,7.08
2019-03-23T03:29:56.793Z,6.90
2019-03-23T03:32:28.039Z,6.82
2019-03-23T03:34:59.259Z,6.79
2019-03-23T03:37:30.564Z,6.85
2019-03-23T03:40:01.914Z,6.87
2019-03-23T03:42:33.284Z,6.82
2019-03-23T03:45:04.711Z,6.88
2019-03-23T03:47:35.993Z,6.94
2019-03-23T03:50:07.496Z,7.00
2019-03-23T03:52:38.736Z,6.87
2019-03-23T03:55:13.118Z,6.95
2019-03-23T03:57:44.461Z,6.97
2019-03-23T04:00:16.533Z,6.89
2019-03-23T04:02:47.823Z,6.89
2019-03-23T04:05:19.106Z,6.95
2019-03-23T04:07:50.424Z,6.95
2019-03-23T04:10:21.763Z,6.98
2019-03-23T04:12:53.124Z,6.95
2019-03-23T04:15:24.426Z,7.01
2019-03-23T04:17:55.784Z,6.99
2019-03-23T04:20:27.109Z,6.74
2019-03-23T04:22:58.418Z,6.63
2019-03-23T04:25:29.690Z,6.56
2019-03-23T04:28:00.991Z,6.48
2019-03-23T04:30:32.258Z,6.45
2019-03-23T04:33:03.615Z,6.39
2019-03-23T04:35:34.854Z,6.38
2019-03-23T04:38:06.101Z,6.32
2019-03-23T04:40:37.381Z,6.32
2019-03-23T04:43:08.622Z,6.29
2019-03-23T04:45:39.936Z,6.28
2019-03-23T04:48:11.289Z,6.32
2019-03-23T04:50:42.610Z,6.37
2019-03-23T04:53:13.925Z,6.38
2019-03-23T04:55:45.263Z,6.41
2019-03-23T04:58:16.587Z,6.46
2019-03-23T05:00:47.927Z,6.44
2019-03-23T05:03:19.292Z,6.51
2019-03-23T05:05:50.658Z,6.53
2019-03-23T05:08:21.880Z,6.56
2019-03-23T05:10:53.242Z,6.63
2019-03-23T05:13:24.541Z,6.64
2019-03-23T05:15:55.777Z,6.66
2019-03-23T05:18:27.207Z,6.54
2019-03-23T05:20:58.450Z,6.55
2019-03-23T05:23:29.796Z,6.57
2019-03-23T05:26:01.127Z,6.47
2019-03-23T05:28:32.440Z,6.48
2019-03-23T05:31:03.772Z,6.55
2019-03-23T05:33:35.113Z,6.46
2019-03-23T05:36:06.408Z,6.50
2019-03-23T05:38:44.445Z,6.52
2019-03-23T05:41:10.636Z,6.60
2019-03-23T05:43:41.939Z,6.57
2019-03-23T05:46:13.288Z,6.56
2019-03-23T05:48:44.655Z,6.64
2019-03-23T05:51:15.876Z,6.64
2019-03-23T05:53:47.038Z,6.69
2019-03-23T05:56:18.316Z,6.63
2019-03-23T05:58:49.614Z,6.67
2019-03-23T06:01:20.955Z,6.61
2019-03-23T06:03:52.300Z,6.55
2019-03-23T06:06:23.543Z,6.61
2019-03-23T06:08:55.571Z,6.57
2019-03-23T06:11:27.049Z,6.72
2019-03-23T06:13:58.370Z,6.75
2019-03-23T06:16:29.620Z,6.73
2019-03-23T06:19:01.001Z,6.76
2019-03-23T06:21:32.364Z,6.86
2019-03-23T06:24:03.668Z,6.96
2019-03-23T06:26:34.944Z,6.77
2019-03-23T06:29:06.209Z,6.84
2019-03-23T06:31:37.508Z,6.91
2019-03-23T06:34:08.854Z,6.88
2019-03-23T06:36:43.237Z,6.91
2019-03-23T06:39:14.540Z,7.03
2019-03-23T06:41:45.767Z,6.86
2019-03-23T06:44:18.422Z,6.92
2019-03-23T06:46:49.829Z,7.02
2019-03-23T06:49:21.101Z,7.01
2019-03-23T06:51:52.446Z,7.05
2019-03-23T06:54:23.727Z,7.00
2019-03-23T06:56:55.049Z,7.10
2019-03-23T06:59:26.371Z,7.07
2019-03-23T07:01:57.756Z,7.14
2019-03-23T07:04:29.014Z,7.25
2019-03-23T07:07:00.224Z,7.35
2019-03-23T07:09:31.374Z,7.24
2019-03-23T07:12:02.620Z,7.14
2019-03-23T07:14:33.946Z,7.28
2019-03-23T07:17:05.271Z,7.34
2019-03-23T07:19:36.511Z,7.41
2019-03-23T07:22:07.949Z,7.28
2019-03-23T07:24:39.322Z,7.39
2019-03-23T07:27:10.667Z,7.40
2019-03-23T07:29:41.940Z,7.45
2019-03-23T07:32:13.276Z,7.42
2019-03-23T07:34:44.589Z,7.44
2019-03-23T07:37:15.854Z,7.58
2019-03-23T07:39:47.230Z,7.70
2019-03-23T07:42:18.585Z,7.68
2019-03-23T07:44:49.770Z,7.74
2019-03-23T07:47:21.135Z,7.83
2019-03-23T07:49:52.377Z,7.79
2019-03-23T07:52:23.803Z,7.90
2019-03-23T07:54:55.125Z,7.99
2019-03-23T07:57:26.406Z,7.83
2019-03-23T07:59:57.631Z,8.01
2019-03-23T08:02:28.961Z,8.16
2019-03-23T08:05:00.050Z,8.20
2019-03-23T08:07:31.306Z,8.16
2019-03-23T08:10:02.558Z,7.96
2019-03-23T08:12:33.865Z,8.01
2019-03-23T08:15:05.724Z,7.92
2019-03-23T08:17:37.006Z,7.90
2019-03-23T08:20:08.393Z,7.93
2019-03-23T08:22:39.531Z,8.16
2019-03-23T08:25:10.923Z,8.04
2019-03-23T08:27:42.147Z,8.14
2019-03-23T08:30:13.562Z,8.18
2019-03-23T08:32:44.843Z,8.32
2019-03-23T08:35:16.057Z,8.40
2019-03-23T08:37:47.388Z,8.56
2019-03-23T08:40:18.718Z,8.60
2019-03-23T08:42:49.940Z,8.55
2019-03-23T08:45:21.215Z,8.51
2019-03-23T08:47:52.492Z,8.42
2019-03-23T08:50:23.772Z,8.41
2019-03-23T08:52:55.110Z,8.48
2019-03-23T08:55:26.422Z,8.44
2019-03-23T08:57:57.809Z,8.54
2019-03-23T09:00:29.085Z,8.61
2019-03-23T09:03:00.373Z,8.55
2019-03-23T09:05:31.691Z,8.51
2019-03-23T09:08:02.980Z,8.67
2019-03-23T09:10:34.330Z,8.67
2019-03-23T09:13:05.732Z,8.67
2019-03-23T09:15:37.007Z,8.68
2019-03-23T09:18:08.354Z,8.72
2019-03-23T09:20:39.645Z,8.60
2019-03-23T09:23:12.149Z,8.63
2019-03-23T09:25:45.608Z,8.69
2019-03-23T09:28:16.453Z,8.66
2019-03-23T09:30:47.703Z,8.81
2019-03-23T09:33:19.025Z,9.00
2019-03-23T09:35:50.314Z,9.08
2019-03-23T09:38:21.684Z,9.10
2019-03-23T09:40:52.910Z,9.11
2019-03-23T09:43:24.193Z,9.17
2019-03-23T09:45:55.712Z,9.35
2019-03-23T09:48:26.924Z,9.29
2019-03-23T09:50:58.144Z,9.35
2019-03-23T09:53:29.395Z,9.31
2019-03-23T09:56:00.707Z,9.26
2019-03-23T09:58:31.855Z,9.27
2019-03-23T10:01:03.254Z,9.23
2019-03-23T10:03:34.632Z,9.27
2019-03-23T10:06:06.193Z,9.18
2019-03-23T10:08:37.470Z,9.11
2019-03-23T10:11:08.744Z,9.05
2019-03-23T10:13:39.971Z,8.94
2019-03-23T10:16:11.337Z,8.87
2019-03-23T10:18:42.571Z,8.89
2019-03-23T10:21:13.754Z,8.92
2019-03-23T10:23:45.046Z,8.92
2019-03-23T10:26:16.347Z,8.88
2019-03-23T10:28:47.543Z,8.92
2019-03-23T10:31:18.817Z,8.97
2019-03-23T10:33:50.071Z,8.92
2019-03-23T10:36:21.366Z,8.93
2019-03-23T10:38:52.766Z,8.92
2019-03-23T10:41:24.060Z,8.90
2019-03-23T10:43:55.389Z,9.14
2019-03-23T10:46:26.694Z,9.15
2019-03-23T10:48:57.946Z,9.31
2019-03-23T10:51:29.247Z,9.44
2019-03-23T10:54:00.554Z,9.37
2019-03-23T10:56:31.859Z,9.46
2019-03-23T10:59:06.283Z,9.44
2019-03-23T11:01:37.619Z,9.49
2019-03-23T11:04:08.939Z,9.46
2019-03-23T11:06:40.218Z,9.39
2019-03-23T11:09:11.445Z,9.38
2019-03-23T11:11:42.740Z,9.46
2019-03-23T11:14:14.031Z,9.40
2019-03-23T11:16:45.253Z,9.34
2019-03-23T11:19:16.567Z,9.32
2019-03-23T11:21:47.911Z,9.33
2019-03-23T11:24:19.130Z,9.33
2019-03-23T11:26:51.923Z,9.30
2019-03-23T11:29:23.169Z,9.28
2019-03-23T11:31:54.837Z,9.16
2019-03-23T11:34:26.139Z,9.05
2019-03-23T11:36:57.501Z,9.07
2019-03-23T11:39:28.791Z,9.07
2019-03-23T11:42:00.208Z,9.11
2019-03-23T11:44:31.595Z,9.03
2019-03-23T11:47:02.907Z,9.10
2019-03-23T11:49:34.298Z,9.06
2019-03-23T11:52:05.660Z,9.02
2019-03-23T11:54:36.891Z,9.01
2019-03-23T11:57:08.272Z,9.03
2019-03-23T11:59:39.572Z,9.02
2019-03-23T12:02:10.981Z,9.19
2019-03-23T12:04:42.589Z,9.22
2019-03-23T12:07:13.937Z,9.21
2019-03-23T12:09:45.221Z,9.33
2019-03-23T12:12:16.563Z,9.45
2019-03-23T12:14:47.827Z,9.64
2019-03-23T12:17:19.074Z,9.83
2019-03-23T12:19:50.318Z,9.81
2019-03-23T12:22:21.621Z,9.84
2019-03-23T12:24:53.032Z,9.83
2019-03-23T12:27:24.800Z,9.90
2019-03-23T12:30:06.574Z,9.98
2019-03-23T12:32:29.171Z,10.04
2019-03-23T12:35:01.035Z,10.18
2019-03-23T12:37:32.343Z,10.40
2019-03-23T12:40:03.701Z,10.45
2019-03-23T12:42:35.079Z,10.54
2019-03-23T12:45:07.085Z,10.58
2019-03-23T12:47:38.390Z,10.70
2019-03-23T12:50:09.864Z,10.84
2019-03-23T12:52:41.182Z,10.97
2019-03-23T12:55:12.592Z,11.06
2019-03-23T12:57:44.176Z,11.13
2019-03-23T13:00:16.981Z,11.29
2019-03-23T13:02:48.334Z,11.61
2019-03-23T13:05:19.703Z,11.33
2019-03-23T13:07:50.924Z,11.18
2019-03-23T13:10:22.267Z,11.16
2019-03-23T13:12:53.621Z,11.21
2019-03-23T13:15:24.907Z,10.86
2019-03-23T13:17:56.264Z,10.81
2019-03-23T13:20:27.569Z,10.77
2019-03-23T13:22:58.853Z,10.99
2019-03-23T13:25:30.335Z,11.20
2019-03-23T13:28:01.705Z,11.30
2019-03-23T13:30:32.983Z,11.38
2019-03-23T13:33:04.685Z,11.43
2019-03-23T13:35:36.023Z,11.53
2019-03-23T13:38:07.351Z,11.73
2019-03-23T13:40:38.677Z,11.72
2019-03-23T13:43:10.232Z,11.61
2019-03-23T13:45:42.827Z,11.71
2019-03-23T13:48:14.424Z,11.72
2019-03-23T13:50:45.834Z,11.94
2019-03-23T13:53:17.202Z,12.72
2019-03-23T13:55:50.935Z,12.91
2019-03-23T13:58:27.653Z,12.97
2019-03-23T14:00:59.060Z,13.94
2019-03-23T14:03:30.397Z,14.51
2019-03-23T14:06:01.739Z,15.19
2019-03-23T14:08:33.058Z,15.53
2019-03-23T14:11:04.438Z,15.73
2019-03-23T14:13:35.836Z,15.70
2019-03-23T14:16:07.201Z,15.67
2019-03-23T14:18:38.406Z,16.31
2019-03-23T14:21:09.612Z,17.78
2019-03-23T14:23:40.861Z,16.73
2019-03-23T14:26:12.231Z,16.69
2019-03-23T14:28:43.413Z,15.90
2019-03-23T14:31:14.690Z,15.00
2019-03-23T14:33:46.016Z,15.58
2019-03-23T14:36:17.223Z,16.63
2019-03-23T14:38:48.415Z,16.47
2019-03-23T14:41:19.738Z,15.73
2019-03-23T14:43:51.059Z,15.42
2019-03-23T14:46:22.453Z,15.94
2019-03-23T14:48:53.768Z,15.15
2019-03-23T14:51:25.026Z,14.75
2019-03-23T14:53:56.217Z,14.53
2019-03-23T14:56:31.771Z,15.07
2019-03-23T14:59:00.533Z,15.43
2019-03-23T15:01:31.896Z,15.25
2019-03-23T15:04:03.278Z,15.87
2019-03-23T15:06:34.514Z,16.00
2019-03-23T15:09:07.462Z,16.28
2019-03-23T15:11:40.222Z,15.42
2019-03-23T15:14:11.549Z,14.93
2019-03-23T15:16:42.893Z,15.11
2019-03-23T15:19:15.682Z,14.97
2019-03-23T15:21:47.248Z,14.51
2019-03-23T15:24:18.557Z,13.31
2019-03-23T15:26:49.796Z,13.00
2019-03-23T15:29:21.305Z,12.59
2019-03-23T15:31:52.551Z,12.72
2019-03-23T15:34:23.805Z,12.38
2019-03-23T15:36:55.196Z,11.80
2019-03-23T15:39:26.435Z,11.66
2019-03-23T15:41:57.693Z,11.59
2019-03-23T15:44:29.043Z,11.52
2019-03-23T15:47:00.353Z,12.15
2019-03-23T15:49:31.611Z,12.71
2019-03-23T15:52:03.002Z,12.75
2019-03-23T15:54:34.275Z,12.62
2019-03-23T15:57:05.592Z,12.73
2019-03-23T15:59:36.950Z,12.52
2019-03-23T16:02:08.828Z,12.14
2019-03-23T16:04:40.092Z,11.73
2019-03-23T16:07:11.385Z,12.07
2019-03-23T16:09:42.651Z,11.75
2019-03-23T16:12:13.985Z,11.66
2019-03-23T16:14:45.160Z,11.37
2019-03-23T16:17:16.523Z,11.13
2019-03-23T16:19:47.846Z,10.97
2019-03-23T16:22:19.180Z,10.67
2019-03-23T16:24:50.487Z,10.63
2019-03-23T16:27:21.754Z,10.54
2019-03-23T16:29:53.105Z,10.45
2019-03-23T16:32:24.419Z,10.32
2019-03-23T16:34:55.720Z,10.16
2019-03-23T16:37:27.048Z,10.10
2019-03-23T16:39:58.470Z,10.06
2019-03-23T16:42:29.800Z,10.24
2019-03-23T16:45:01.095Z,10.22
2019-03-23T16:47:32.469Z,10.28
2019-03-23T16:50:04.029Z,10.14
2019-03-23T16:52:35.493Z,9.98
2019-03-23T16:55:07.936Z,9.96
2019-03-23T16:57:39.313Z,9.94
2019-03-23T17:00:14.357Z,9.72
2019-03-23T17:02:45.691Z,9.70
2019-03-23T17:05:17.004Z,9.59
2019-03-23T17:07:48.338Z,9.53
2019-03-23T17:10:19.675Z,9.49
2019-03-23T17:12:55.387Z,9.42
2019-03-23T17:15:24.086Z,9.29
2019-03-23T17:17:55.313Z,9.27
2019-03-23T17:20:26.578Z,9.14
2019-03-23T17:22:57.945Z,9.09
2019-03-23T17:25:29.287Z,9.07
2019-03-23T17:28:00.622Z,8.96
2019-03-23T17:30:31.968Z,8.96
2019-03-23T17:33:03.238Z,8.84
2019-03-23T17:35:34.543Z,8.80
2019-03-23T17:38:05.921Z,8.81
2019-03-23T17:40:37.227Z,8.77
2019-03-23T17:43:08.488Z,8.75
2019-03-23T17:45:39.733Z,8.74
2019-03-23T17:48:10.985Z,8.76
2019-03-23T17:50:43.158Z,8.70
2019-03-23T17:53:14.478Z,8.60
2019-03-23T17:55:45.809Z,8.70
2019-03-23T17:58:17.214Z,8.60
2019-03-23T18:00:48.582Z,8.55
2019-03-23T18:03:20.857Z,8.47
2019-03-23T18:05:52.223Z,8.48
2019-03-23T18:08:23.583Z,8.47
2019-03-23T18:10:54.903Z,8.33
2019-03-23T18:13:26.210Z,8.35
2019-03-23T18:15:57.498Z,8.18
2019-03-23T18:18:28.842Z,8.12
2019-03-23T18:21:00.158Z,8.10
2019-03-23T18:23:31.515Z,8.08
2019-03-23T18:26:02.996Z,7.99
2019-03-23T18:28:34.216Z,7.94
2019-03-23T18:31:05.588Z,7.89
2019-03-23T18:33:36.803Z,7.89
2019-03-23T18:36:08.203Z,7.83
2019-03-23T18:38:39.538Z,7.76
2019-03-23T18:41:10.820Z,7.68
2019-03-23T18:43:42.124Z,7.74
2019-03-23T18:46:13.922Z,7.60
2019-03-23T18:48:45.190Z,7.49
2019-03-23T18:51:16.416Z,7.48
2019-03-23T18:53:47.692Z,7.44
2019-03-23T18:56:19.081Z,7.33
2019-03-23T18:58:50.385Z,7.25
2019-03-23T19:01:21.711Z,7.22
2019-03-23T19:03:52.993Z,7.21
2019-03-23T19:06:24.289Z,7.18
2019-03-23T19:08:55.729Z,7.24
2019-03-23T19:11:26.951Z,7.23
2019-03-23T19:13:58.216Z,7.19
2019-03-23T19:16:29.623Z,7.09
2019-03-23T19:19:01.052Z,7.02
2019-03-23T19:21:32.452Z,7.05
2019-03-23T19:24:03.837Z,7.04
2019-03-23T19:26:35.197Z,6.95
2019-03-23T19:29:06.543Z,6.89
2019-03-23T19:31:37.881Z,6.94
2019-03-23T19:34:09.203Z,6.84
2019-03-23T19:36:40.401Z,6.80
2019-03-23T19:39:12.198Z,6.79
2019-03-23T19:41:43.477Z,6.82
2019-03-23T19:44:14.879Z,6.82
2019-03-23T19:46:46.224Z,6.79
2019-03-23T19:49:17.629Z,6.74
2019-03-23T19:51:48.865Z,6.76
2019-03-23T19:54:20.241Z,6.73
2019-03-23T19:56:51.530Z,6.75
2019-03-23T19:59:22.856Z,6.64
2019-03-23T20:01:54.438Z,6.65
2019-03-23T20:04:25.748Z,6.73
2019-03-23T20:06:57.102Z,6.70
2019-03-23T20:09:28.471Z,6.61
2019-03-23T20:11:59.794Z,6.59
2019-03-23T20:14:31.066Z,6.51
2019-03-23T20:17:02.424Z,6.42
2019-03-23T20:19:33.865Z,6.33
2019-03-23T20:22:05.405Z,6.43
2019-03-23T20:24:36.815Z,6.25
2019-03-23T20:27:08.111Z,6.22
2019-03-23T20:29:39.420Z,6.16
2019-03-23T20:32:13.513Z,6.15
2019-03-23T20:34:44.703Z,6.21
2019-03-23T20:37:16.053Z,6.14
2019-03-23T20:39:47.408Z,6.13
2019-03-23T20:42:18.725Z,6.20
2019-03-23T20:44:49.991Z,6.12
2019-03-23T20:47:21.337Z,6.04
2019-03-23T20:49:53.275Z,6.10
2019-03-23T20:52:24.629Z,6.11
2019-03-23T20:54:55.992Z,6.04
2019-03-23T20:57:36.911Z,6.10
2019-03-23T21:00:00.602Z,6.02
2019-03-23T21:02:32.104Z,5.96
2019-03-23T21:05:03.459Z,5.95
2019-03-23T21:07:34.948Z,5.94
2019-03-23T21:10:06.672Z,5.91
2019-03-23T21:12:37.993Z,5.90
2019-03-23T21:15:09.502Z,5.92
2019-03-23T21:17:50.693Z,5.90
2019-03-23T21:20:14.173Z,5.88
2019-03-23T21:22:45.532Z,5.93
2019-03-23T21:25:17.046Z,5.97
2019-03-23T21:27:48.442Z,6.04
2019-03-23T21:30:21.613Z,5.89
2019-03-23T21:32:52.987Z,5.79
2019-03-23T21:35:24.331Z,5.81
2019-03-23T21:37:55.649Z,5.89
2019-03-23T21:40:27.101Z,5.85
2019-03-23T21:42:58.478Z,5.80
2019-03-23T21:45:29.806Z,5.78
2019-03-23T21:48:02.072Z,5.72
2019-03-23T21:50:33.442Z,5.71
2019-03-23T21:53:04.825Z,5.81
2019-03-23T21:55:36.188Z,5.81
2019-03-23T21:58:07.601Z,5.76
2019-03-23T22:00:39.098Z,5.81
2019-03-23T22:03:10.415Z,5.72
2019-03-23T22:05:41.813Z,5.71
2019-03-23T22:08:13.249Z,5.68
2019-03-23T22:10:44.628Z,5.78
2019-03-23T22:13:15.991Z,5.77
2019-03-23T22:15:47.371Z,5.69
2019-03-23T22:18:18.864Z,5.69
2019-03-23T22:20:50.171Z,5.65
2019-03-23T22:23:21.482Z,5.72
2019-03-23T22:25:52.955Z,5.63
2019-03-23T22:28:24.268Z,5.65
2019-03-23T22:30:55.716Z,5.63
2019-03-23T22:33:27.139Z,5.61
2019-03-23T22:35:58.485Z,5.63
2019-03-23T22:38:29.801Z,5.69
2019-03-23T22:41:01.136Z,5.72
2019-03-23T22:43:32.437Z,5.65
2019-03-23T22:46:03.768Z,5.63
2019-03-23T22:48:35.091Z,5.55
2019-03-23T22:51:06.455Z,5.61
2019-03-23T22:53:37.785Z,5.55
2019-03-23T22:56:09.190Z,5.49
2019-03-23T22:58:40.513Z,5.60
2019-03-23T23:01:12.048Z,5.73
2019-03-23T23:03:43.423Z,5.63
2019-03-23T23:06:14.730Z,5.70
2019-03-23T23:08:46.054Z,5.62
2019-03-23T23:11:17.448Z,5.71
2019-03-23T23:13:48.779Z,5.65
2019-03-23T23:16:20.085Z,5.60
2019-03-23T23:18:51.529Z,5.56
2019-03-23T23:21:22.859Z,5.51
2019-03-23T23:23:54.395Z,5.57
2019-03-23T23:26:25.763Z,5.47
2019-03-23T23:28:57.092Z,5.37
2019-03-23T23:31:28.398Z,5.38
2019-03-23T23:33:59.636Z,5.43
2019-03-23T23:36:31.058Z,5.44
2019-03-23T23:39:02.382Z,5.40
2019-03-23T23:41:33.732Z,5.39
2019-03-23T23:44:05.093Z,5.38
2019-03-23T23:46:36.526Z,5.35
2019-03-23T23:49:07.888Z,5.38
2019-03-23T23:51:49.606Z,5.34
2019-03-23T23:54:12.318Z,5.36
2019-03-23T23:56:43.679Z,5.38
2019-03-23T23:59:15.008Z,5.29
